createdAt,value
2024-04-05T00:00:44.125Z,24.21
2024-04-05T00:01:44.190Z,24.13
2024-04-05T00:02:44.233Z,24.18
2024-04-05T00:03:44.356Z,24.11
2024-04-05T00:04:44.412Z,24.19
2024-04-05T00:05:44.451Z,24.18
2024-04-05T00:06:44.528Z,24.19
2024-04-05T00:07:44.597Z,24.13
2024-04-05T00:08:44.667Z,24.18
2024-04-05T00:09:44.747Z,24.20
2024-04-05T00:10:45.061Z,24.18
2024-04-05T00:11:44.867Z,24.20
2024-04-05T00:12:48.063Z,24.19
2024-04-05T00:13:45.957Z,24.18
2024-04-05T00:14:44.946Z,24.20
2024-04-05T00:15:44.948Z,24.20
2024-04-05T00:16:44.945Z,24.20
2024-04-05T00:17:44.952Z,24.19
2024-04-05T00:18:44.966Z,24.18
2024-04-05T00:19:44.963Z,24.20
2024-04-05T00:20:45.099Z,24.19
2024-04-05T00:21:44.926Z,24.17
2024-04-05T00:22:45.186Z,24.21
2024-04-05T00:23:45.098Z,24.17
2024-04-05T00:24:45.156Z,24.17
2024-04-05T00:25:45.208Z,24.17
2024-04-05T00:26:45.278Z,24.19
2024-04-05T00:27:45.382Z,24.19
2024-04-05T00:28:45.498Z,24.21
2024-04-05T00:29:45.503Z,24.20
2024-04-05T00:30:45.557Z,24.17
2024-04-05T00:31:45.673Z,24.16
2024-04-05T00:32:45.691Z,24.20
2024-04-05T00:33:45.780Z,24.19
2024-04-05T00:34:45.827Z,24.17
2024-04-05T00:35:45.907Z,24.20
2024-04-05T00:36:45.955Z,24.20
2024-04-05T00:37:46.007Z,24.17
2024-04-05T00:38:46.124Z,24.24
2024-04-05T00:39:46.182Z,24.20
2024-04-05T00:40:46.244Z,24.21
2024-04-05T00:41:46.295Z,24.23
2024-04-05T00:42:46.413Z,24.21
2024-04-05T00:43:46.460Z,24.25
2024-04-05T00:44:46.519Z,24.23
2024-04-05T00:45:46.605Z,24.20
2024-04-05T00:46:46.638Z,24.24
2024-04-05T00:47:46.706Z,24.24
2024-04-05T00:48:46.814Z,24.23
2024-04-05T00:49:46.817Z,24.23
2024-04-05T00:50:46.864Z,24.20
2024-04-05T00:51:47.009Z,24.19
2024-04-05T00:52:47.039Z,24.23
2024-04-05T00:53:47.112Z,24.16
2024-04-05T00:54:47.156Z,24.21
2024-04-05T00:55:47.214Z,24.23
2024-04-05T00:56:47.378Z,24.25
2024-04-05T00:57:47.352Z,24.21
2024-04-05T00:58:47.508Z,24.22
2024-04-05T00:59:47.501Z,24.21
2024-04-05T01:00:47.592Z,24.22
2024-04-05T01:01:47.610Z,24.22
2024-04-05T01:02:47.664Z,24.21
2024-04-05T01:03:47.733Z,24.25
2024-04-05T01:04:47.787Z,24.22
2024-04-05T01:05:47.838Z,24.25
2024-04-05T01:06:47.902Z,24.21
2024-04-05T01:07:47.898Z,24.22
2024-04-05T01:08:48.016Z,24.20
2024-04-05T01:09:48.081Z,24.22
2024-04-05T01:10:48.191Z,24.24
2024-04-05T01:11:48.190Z,24.25
2024-04-05T01:12:48.250Z,24.21
2024-04-05T01:13:48.291Z,24.24
2024-04-05T01:14:48.357Z,24.24
2024-04-05T01:15:48.376Z,24.25
2024-04-05T01:16:48.441Z,24.22
2024-04-05T01:17:48.537Z,24.24
2024-04-05T01:18:48.587Z,24.21
2024-04-05T01:19:48.606Z,24.22
2024-04-05T01:20:48.691Z,24.24
2024-04-05T01:21:48.718Z,24.25
2024-04-05T01:22:48.737Z,24.21
2024-04-05T01:23:48.788Z,24.22
2024-04-05T01:24:48.832Z,24.27
2024-04-05T01:25:48.907Z,24.22
2024-04-05T01:26:48.960Z,24.24
2024-04-05T01:27:49.027Z,24.24
2024-04-05T01:28:49.073Z,24.25
2024-04-05T01:29:49.112Z,24.23
2024-04-05T01:30:49.183Z,24.28
2024-04-05T01:31:49.276Z,24.21
2024-04-05T01:32:49.291Z,24.19
2024-04-05T01:33:49.373Z,24.21
2024-04-05T01:34:49.418Z,24.25
2024-04-05T01:35:49.429Z,24.28
2024-04-05T01:36:49.529Z,24.28
2024-04-05T01:37:49.515Z,24.22
2024-04-05T01:38:49.548Z,24.26
2024-04-05T01:39:49.615Z,24.24
2024-04-05T01:40:49.674Z,24.28
2024-04-05T01:41:49.709Z,24.25
2024-04-05T01:42:49.775Z,24.28
2024-04-05T01:43:49.784Z,24.28
2024-04-05T01:44:49.826Z,24.23
2024-04-05T01:45:49.913Z,24.26
2024-04-05T01:46:49.972Z,24.28
2024-04-05T01:47:49.980Z,24.21
2024-04-05T01:48:50.055Z,24.24
2024-04-05T01:49:50.170Z,24.28
2024-04-05T01:50:50.172Z,24.23
2024-04-05T01:51:50.243Z,24.22
2024-04-05T01:52:50.302Z,24.23
2024-04-05T01:53:50.333Z,24.25
2024-04-05T01:54:50.372Z,24.26
2024-04-05T01:55:50.409Z,24.26
2024-04-05T01:56:50.463Z,24.23
2024-04-05T01:57:50.511Z,24.29
2024-04-05T01:58:50.607Z,24.28
2024-04-05T01:59:50.626Z,24.29
2024-04-05T02:00:50.679Z,24.26
2024-04-05T02:01:52.953Z,24.33
2024-04-05T02:02:50.702Z,24.30
2024-04-05T02:03:50.765Z,24.27
2024-04-05T02:04:50.731Z,24.25
2024-04-05T02:05:50.754Z,24.30
2024-04-05T02:06:50.729Z,24.28
2024-04-05T02:07:50.744Z,24.26
2024-04-05T02:08:50.741Z,24.29
2024-04-05T02:09:50.715Z,24.33
2024-04-05T02:10:50.781Z,24.31
2024-04-05T02:11:50.736Z,24.27
2024-04-05T02:12:50.764Z,24.30
2024-04-05T02:13:50.742Z,24.26
2024-04-05T02:14:50.744Z,24.24
2024-04-05T02:15:50.760Z,24.26
2024-04-05T02:16:50.760Z,24.26
2024-04-05T02:17:50.740Z,24.28
2024-04-05T02:18:50.729Z,24.25
2024-04-05T02:19:50.742Z,24.26
2024-04-05T02:20:50.747Z,24.27
2024-04-05T02:21:50.797Z,24.31
2024-04-05T02:22:51.477Z,24.33
2024-04-05T02:23:50.772Z,24.29
2024-04-05T02:24:50.718Z,24.24
2024-04-05T02:25:50.786Z,24.27
2024-04-05T02:26:50.765Z,24.27
2024-04-05T02:27:50.745Z,24.24
2024-04-05T02:28:50.775Z,24.33
2024-04-05T02:29:50.757Z,24.31
2024-04-05T02:30:50.755Z,24.29
2024-04-05T02:31:50.759Z,24.24
2024-04-05T02:32:50.774Z,24.27
2024-04-05T02:33:50.771Z,24.30
2024-04-05T02:34:50.742Z,24.27
2024-04-05T02:35:50.753Z,24.34
2024-04-05T02:36:50.735Z,24.31
2024-04-05T02:37:50.772Z,24.28
2024-04-05T02:38:50.774Z,24.33
2024-04-05T02:39:50.768Z,24.33
2024-04-05T02:40:50.779Z,24.30
2024-04-05T02:41:50.736Z,24.30
2024-04-05T02:42:50.728Z,24.31
2024-04-05T02:43:50.816Z,24.33
2024-04-05T02:44:50.753Z,24.27
2024-04-05T02:45:50.752Z,24.31
2024-04-05T02:46:50.767Z,24.28
2024-04-05T02:47:50.768Z,24.30
2024-04-05T02:48:50.770Z,24.33
2024-04-05T02:49:50.780Z,24.27
2024-04-05T02:50:50.790Z,24.28
2024-04-05T02:51:50.797Z,24.30
2024-04-05T02:52:50.781Z,24.31
2024-04-05T02:53:50.812Z,24.31
2024-04-05T02:54:50.777Z,24.30
2024-04-05T02:55:50.786Z,24.30
2024-04-05T02:56:50.778Z,24.32
2024-04-05T02:57:50.812Z,24.28
2024-04-05T02:58:50.799Z,24.31
2024-04-05T02:59:50.820Z,24.34
2024-04-05T03:00:50.825Z,24.34
2024-04-05T03:01:50.812Z,24.32
2024-04-05T03:02:50.769Z,24.29
2024-04-05T03:03:50.774Z,24.30
2024-04-05T03:04:50.838Z,24.36
2024-04-05T03:05:50.782Z,24.31
2024-04-05T03:06:50.796Z,24.34
2024-04-05T03:07:50.832Z,24.34
2024-04-05T03:08:50.806Z,24.31
2024-04-05T03:09:50.812Z,24.35
2024-04-05T03:10:50.829Z,24.35
2024-04-05T03:11:50.822Z,24.30
2024-04-05T03:12:50.796Z,24.30
2024-04-05T03:13:50.897Z,24.32
2024-04-05T03:14:50.803Z,24.33
2024-04-05T03:15:50.811Z,24.32
2024-04-05T03:16:50.826Z,24.34
2024-04-05T03:17:50.794Z,24.34
2024-04-05T03:18:50.829Z,24.34
2024-04-05T03:19:50.781Z,24.27
2024-04-05T03:20:50.782Z,24.35
2024-04-05T03:21:50.799Z,24.38
2024-04-05T03:22:50.859Z,24.32
2024-04-05T03:23:50.818Z,24.31
2024-04-05T03:24:50.813Z,24.33
2024-04-05T03:25:50.822Z,24.28
2024-04-05T03:26:50.832Z,24.33
2024-04-05T03:27:50.831Z,24.32
2024-04-05T03:28:50.837Z,24.27
2024-04-05T03:29:50.892Z,24.32
2024-04-05T03:30:50.824Z,24.35
2024-04-05T03:31:50.820Z,24.35
2024-04-05T03:32:50.841Z,24.34
2024-04-05T03:33:50.832Z,24.36
2024-04-05T03:34:50.844Z,24.32
2024-04-05T03:35:50.841Z,24.35
2024-04-05T03:36:50.855Z,24.31
2024-04-05T03:37:50.862Z,24.35
2024-04-05T03:38:50.876Z,24.32
2024-04-05T03:39:50.812Z,24.32
2024-04-05T03:40:50.819Z,24.32
2024-04-05T03:41:50.826Z,24.35
2024-04-05T03:42:50.845Z,24.32
2024-04-05T03:43:50.855Z,24.31
2024-04-05T03:44:50.847Z,24.31
2024-04-05T03:45:50.834Z,24.33
2024-04-05T03:46:50.863Z,24.33
2024-04-05T03:47:50.824Z,24.35
2024-04-05T03:48:50.838Z,24.33
2024-04-05T03:49:50.843Z,24.32
2024-04-05T03:50:50.848Z,24.29
2024-04-05T03:51:50.847Z,24.33
2024-04-05T03:52:50.861Z,24.31
2024-04-05T03:53:50.869Z,24.32
2024-04-05T03:54:50.933Z,24.33
2024-04-05T03:55:50.836Z,24.35
2024-04-05T03:56:52.103Z,24.36
2024-04-05T03:57:50.846Z,24.33
2024-04-05T03:58:50.841Z,24.36
2024-04-05T03:59:50.846Z,24.37
2024-04-05T04:00:50.859Z,24.35
2024-04-05T04:01:50.909Z,24.36
2024-04-05T04:02:50.878Z,24.32
2024-04-05T04:03:50.868Z,24.33
2024-04-05T04:04:50.884Z,24.40
2024-04-05T04:05:50.844Z,24.41
2024-04-05T04:06:50.860Z,24.40
2024-04-05T04:07:52.517Z,24.51
2024-04-05T04:08:50.884Z,24.49
2024-04-05T04:09:50.883Z,24.46
2024-04-05T04:10:50.895Z,24.50
2024-04-05T04:11:50.879Z,24.57
2024-04-05T04:12:50.905Z,24.56
2024-04-05T04:13:58.062Z,24.60
2024-04-05T04:14:58.076Z,24.62
2024-04-05T04:15:58.071Z,24.61
2024-04-05T04:16:58.086Z,24.69
2024-04-05T04:17:58.085Z,24.69
2024-04-05T04:18:58.109Z,24.68
2024-04-05T04:19:58.101Z,24.67
2024-04-05T04:20:58.122Z,24.67
2024-04-05T04:21:58.139Z,24.70
2024-04-05T04:22:58.076Z,24.73
2024-04-05T04:23:58.070Z,24.70
2024-04-05T04:24:58.076Z,24.76
2024-04-05T04:25:58.082Z,24.74
2024-04-05T04:26:58.160Z,24.77
2024-04-05T04:27:58.105Z,24.81
2024-04-05T04:28:58.085Z,24.82
2024-04-05T04:29:58.115Z,24.82
2024-04-05T04:31:05.284Z,24.86
2024-04-05T04:32:05.298Z,24.79
2024-04-05T04:33:05.292Z,24.86
2024-04-05T04:34:05.269Z,24.82
2024-04-05T04:35:05.308Z,24.79
2024-04-05T04:36:05.284Z,24.79
2024-04-05T04:37:05.291Z,24.77
2024-04-05T04:38:05.293Z,24.72
2024-04-05T04:39:05.301Z,24.69
2024-04-05T04:40:05.303Z,24.73
2024-04-05T04:41:05.301Z,24.72
2024-04-05T04:42:05.317Z,24.72
2024-04-05T04:43:07.807Z,24.67
2024-04-05T04:44:05.334Z,24.69
2024-04-05T04:45:05.278Z,24.65
2024-04-05T04:46:05.282Z,24.68
2024-04-05T04:47:05.293Z,24.67
2024-04-05T04:48:05.311Z,24.61
2024-04-05T04:49:05.307Z,24.61
2024-04-05T04:50:05.310Z,24.68
2024-04-05T04:51:05.290Z,24.68
2024-04-05T04:52:05.281Z,24.58
2024-04-05T04:53:05.324Z,24.59
2024-04-05T04:54:05.288Z,24.64
2024-04-05T04:55:05.304Z,24.64
2024-04-05T04:56:05.312Z,24.60
2024-04-05T04:57:05.323Z,24.62
2024-04-05T04:58:05.335Z,24.60
2024-04-05T04:59:05.329Z,24.61
2024-04-05T05:00:05.363Z,24.64
2024-04-05T05:01:05.344Z,24.60
2024-04-05T05:02:05.408Z,24.57
2024-04-05T05:03:05.296Z,24.60
2024-04-05T05:04:05.338Z,24.60
2024-04-05T05:05:05.304Z,24.56
2024-04-05T05:06:05.312Z,24.56
2024-04-05T05:07:05.322Z,24.63
2024-04-05T05:08:05.325Z,24.60
2024-04-05T05:09:05.329Z,24.56
2024-04-05T05:10:05.327Z,24.63
2024-04-05T05:11:05.348Z,24.60
2024-04-05T05:12:05.360Z,24.56
2024-04-05T05:13:08.689Z,24.56
2024-04-05T05:14:05.376Z,24.60
2024-04-05T05:15:05.329Z,24.60
2024-04-05T05:16:05.352Z,24.59
2024-04-05T05:17:05.352Z,24.57
2024-04-05T05:18:05.372Z,24.50
2024-04-05T05:19:05.377Z,24.60
2024-04-05T05:20:05.377Z,24.56
2024-04-05T05:21:05.378Z,24.59
2024-04-05T05:22:05.414Z,24.59
2024-04-05T05:23:05.396Z,24.59
2024-04-05T05:24:05.409Z,24.57
2024-04-05T05:25:05.429Z,24.58
2024-04-05T05:26:05.347Z,24.52
2024-04-05T05:27:05.376Z,24.58
2024-04-05T05:28:05.414Z,24.53
2024-04-05T05:29:05.373Z,24.55
2024-04-05T05:30:05.379Z,24.51
2024-04-05T05:31:05.385Z,24.50
2024-04-05T05:32:05.383Z,24.53
2024-04-05T05:33:05.400Z,24.47
2024-04-05T05:34:05.398Z,24.66
2024-04-05T05:35:05.372Z,24.56
2024-04-05T05:36:05.385Z,24.52
2024-04-05T05:37:05.371Z,24.70
2024-04-05T05:38:05.410Z,24.71
2024-04-05T05:39:05.395Z,24.80
2024-04-05T05:40:05.413Z,25.00
2024-04-05T05:41:05.425Z,25.04
2024-04-05T05:42:05.424Z,25.44
2024-04-05T05:43:05.935Z,24.95
2024-04-05T05:44:05.995Z,25.05
2024-04-05T05:45:05.983Z,25.02
2024-04-05T05:46:05.458Z,25.16
2024-04-05T05:47:05.448Z,25.27
2024-04-05T05:48:05.402Z,25.47
2024-04-05T05:49:05.476Z,25.68
2024-04-05T05:50:05.494Z,25.96
2024-04-05T05:51:05.480Z,26.12
2024-04-05T05:52:05.422Z,26.36
2024-04-05T05:53:05.406Z,26.64
2024-04-05T05:54:05.520Z,26.76
2024-04-05T05:55:05.955Z,26.97
2024-04-05T05:56:05.450Z,27.22
2024-04-05T05:57:05.581Z,27.56
2024-04-05T05:58:05.544Z,27.71
2024-04-05T05:59:05.564Z,27.68
2024-04-05T06:00:05.595Z,27.57
2024-04-05T06:01:06.471Z,27.78
2024-04-05T06:02:09.172Z,27.75
2024-04-05T06:03:05.707Z,27.87
2024-04-05T06:04:06.031Z,28.17
2024-04-05T06:05:05.681Z,28.14
2024-04-05T06:06:05.629Z,28.21
2024-04-05T06:07:05.629Z,28.17
2024-04-05T06:08:05.631Z,28.15
2024-04-05T06:09:05.969Z,28.52
2024-04-05T06:10:05.644Z,28.65
2024-04-05T06:11:05.646Z,28.49
2024-04-05T06:12:05.619Z,28.47
2024-04-05T06:13:05.623Z,28.40
2024-04-05T06:14:05.639Z,28.34
2024-04-05T06:15:05.995Z,28.39
2024-04-05T06:16:05.657Z,28.43
2024-04-05T06:17:05.669Z,28.39
2024-04-05T06:18:05.665Z,28.35
2024-04-05T06:19:05.671Z,28.61
2024-04-05T06:20:06.000Z,28.87
2024-04-05T06:21:05.623Z,28.72
2024-04-05T06:22:05.625Z,28.57
2024-04-05T06:23:05.636Z,28.64
2024-04-05T06:24:05.640Z,28.72
2024-04-05T06:25:05.954Z,28.71
2024-04-05T06:26:05.659Z,28.74
2024-04-05T06:27:05.967Z,28.55
2024-04-05T06:28:05.672Z,28.58
2024-04-05T06:29:05.720Z,28.55
2024-04-05T06:30:05.793Z,28.82
2024-04-05T06:31:05.700Z,28.79
2024-04-05T06:32:05.962Z,28.97
2024-04-05T06:33:05.768Z,28.83
2024-04-05T06:34:05.677Z,28.70
2024-04-05T06:35:09.096Z,28.85
2024-04-05T06:36:05.703Z,28.75
2024-04-05T06:37:06.444Z,28.76
2024-04-05T06:38:05.700Z,28.18
2024-04-05T06:39:05.922Z,27.19
2024-04-05T06:40:05.749Z,26.89
2024-04-05T06:41:05.655Z,26.40
2024-04-05T06:42:05.670Z,26.56
2024-04-05T06:43:05.664Z,26.41
2024-04-05T06:44:05.786Z,26.96
2024-04-05T06:45:05.712Z,27.06
2024-04-05T06:46:05.787Z,27.20
2024-04-05T06:47:05.809Z,27.22
2024-04-05T06:48:05.691Z,27.29
2024-04-05T06:49:05.673Z,27.19
2024-04-05T06:50:05.989Z,27.17
2024-04-05T06:51:06.040Z,27.30
2024-04-05T06:52:05.693Z,27.34
2024-04-05T06:53:06.004Z,27.38
2024-04-05T06:54:05.689Z,26.93
2024-04-05T06:55:05.723Z,26.69
2024-04-05T06:56:06.487Z,26.60
2024-04-05T06:57:06.573Z,26.62
2024-04-05T06:58:05.984Z,26.55
2024-04-05T06:59:05.692Z,26.65
2024-04-05T07:00:05.962Z,26.58
2024-04-05T07:01:05.717Z,26.73
2024-04-05T07:02:06.425Z,26.63
2024-04-05T07:03:06.380Z,26.66
2024-04-05T07:04:05.749Z,26.67
2024-04-05T07:05:05.786Z,27.00
2024-04-05T07:06:05.920Z,26.78
2024-04-05T07:07:05.924Z,26.69
2024-04-05T07:08:06.052Z,26.57
2024-04-05T07:09:06.014Z,26.71
2024-04-05T07:10:06.046Z,26.85
2024-04-05T07:11:06.144Z,26.62
2024-04-05T07:12:06.146Z,26.56
2024-04-05T07:13:07.058Z,26.56
2024-04-05T07:14:06.203Z,26.46
2024-04-05T07:15:06.303Z,26.62
2024-04-05T07:16:06.460Z,26.59
2024-04-05T07:17:06.482Z,26.66
2024-04-05T07:18:06.476Z,26.53
2024-04-05T07:19:09.483Z,26.65
2024-04-05T07:20:06.502Z,26.78
2024-04-05T07:21:06.480Z,26.86
2024-04-05T07:22:07.034Z,27.06
2024-04-05T07:23:06.540Z,27.15
2024-04-05T07:24:06.535Z,27.08
2024-04-05T07:25:07.501Z,27.07
2024-04-05T07:26:06.544Z,27.02
2024-04-05T07:27:06.998Z,26.94
2024-04-05T07:28:06.503Z,27.03
2024-04-05T07:29:06.492Z,26.85
2024-04-05T07:30:07.503Z,26.81
2024-04-05T07:31:06.988Z,26.73
2024-04-05T07:32:06.554Z,26.68
2024-04-05T07:33:06.525Z,26.70
2024-04-05T07:34:06.490Z,26.72
2024-04-05T07:35:06.479Z,26.67
2024-04-05T07:36:07.007Z,26.36
2024-04-05T07:37:06.526Z,26.62
2024-04-05T07:38:06.976Z,26.67
2024-04-05T07:39:06.548Z,26.21
2024-04-05T07:40:07.171Z,26.09
2024-04-05T07:41:06.639Z,25.96
2024-04-05T07:42:06.538Z,25.84
2024-04-05T07:43:07.000Z,25.80
2024-04-05T07:44:06.561Z,25.89
2024-04-05T07:45:07.462Z,25.91
2024-04-05T07:46:06.568Z,25.98
2024-04-05T07:47:06.534Z,26.11
2024-04-05T07:48:07.003Z,26.14
2024-04-05T07:49:06.513Z,26.30
2024-04-05T07:50:06.574Z,26.42
2024-04-05T07:51:07.049Z,26.45
2024-04-05T07:52:07.687Z,26.56
2024-04-05T07:53:06.621Z,26.49
2024-04-05T07:54:06.601Z,26.59
2024-04-05T07:55:06.552Z,26.51
2024-04-05T07:56:07.200Z,26.53
2024-04-05T07:57:10.853Z,26.60
2024-04-05T07:58:08.500Z,26.61
2024-04-05T07:59:06.560Z,26.71
2024-04-05T08:00:08.736Z,26.80
2024-04-05T08:01:07.024Z,26.86
2024-04-05T08:02:06.610Z,26.91
2024-04-05T08:03:06.547Z,26.96
2024-04-05T08:04:06.584Z,26.83
2024-04-05T08:05:07.033Z,27.07
2024-04-05T08:06:06.590Z,27.12
2024-04-05T08:07:07.526Z,27.05
2024-04-05T08:08:06.610Z,27.01
2024-04-05T08:09:06.663Z,27.12
2024-04-05T08:10:06.583Z,27.10
2024-04-05T08:11:06.658Z,27.07
2024-04-05T08:12:10.128Z,27.08
2024-04-05T08:13:06.607Z,27.17
2024-04-05T08:14:06.604Z,27.20
2024-04-05T08:15:06.982Z,27.16
2024-04-05T08:16:06.690Z,27.28
2024-04-05T08:17:06.601Z,27.34
2024-04-05T08:18:06.570Z,27.32
2024-04-05T08:19:06.612Z,27.35
2024-04-05T08:20:07.110Z,27.34
2024-04-05T08:21:06.579Z,27.35
2024-04-05T08:22:06.597Z,27.37
2024-04-05T08:23:06.609Z,27.46
2024-04-05T08:24:06.618Z,27.52
2024-04-05T08:25:07.087Z,27.61
2024-04-05T08:26:06.620Z,27.52
2024-04-05T08:27:06.656Z,27.45
2024-04-05T08:28:06.656Z,26.71
2024-04-05T08:29:06.691Z,26.99
2024-04-05T08:30:06.654Z,27.39
2024-04-05T08:31:07.005Z,26.50
2024-04-05T08:32:06.617Z,26.23
2024-04-05T08:33:06.613Z,26.26
2024-04-05T08:34:06.632Z,26.27
2024-04-05T08:35:06.627Z,26.32
2024-04-05T08:36:06.633Z,26.24
2024-04-05T08:37:06.657Z,26.17
2024-04-05T08:38:06.639Z,26.13
2024-04-05T08:39:06.613Z,26.19
2024-04-05T08:40:06.622Z,26.08
2024-04-05T08:41:07.029Z,26.03
2024-04-05T08:42:06.621Z,25.91
2024-04-05T08:43:06.613Z,25.92
2024-04-05T08:44:06.657Z,25.85
2024-04-05T08:45:06.654Z,25.84
2024-04-05T08:46:06.635Z,25.73
2024-04-05T08:47:06.660Z,25.76
2024-04-05T08:48:07.049Z,25.79
2024-04-05T08:49:06.638Z,25.71
2024-04-05T08:50:06.639Z,25.71
2024-04-05T08:51:07.030Z,25.60
2024-04-05T08:52:06.643Z,25.55
2024-04-05T08:53:06.657Z,25.51
2024-04-05T08:54:06.657Z,25.57
2024-04-05T08:55:06.661Z,25.53
2024-04-05T08:56:07.117Z,25.57
2024-04-05T08:57:06.626Z,25.49
2024-04-05T08:58:06.645Z,25.46
2024-04-05T08:59:06.657Z,25.36
2024-04-05T09:00:06.657Z,25.42
2024-04-05T09:01:07.058Z,25.32
2024-04-05T09:02:06.659Z,25.32
2024-04-05T09:03:06.719Z,25.31
2024-04-05T09:04:07.554Z,25.34
2024-04-05T09:05:06.702Z,25.32
2024-04-05T09:06:07.055Z,25.40
2024-04-05T09:07:06.633Z,25.40
2024-04-05T09:08:07.107Z,25.39
2024-04-05T09:09:06.711Z,25.42
2024-04-05T09:10:06.751Z,25.43
2024-04-05T09:11:07.827Z,25.46
2024-04-05T09:12:07.026Z,25.43
2024-04-05T09:13:06.844Z,25.32
2024-04-05T09:14:06.891Z,25.31
2024-04-05T09:15:06.953Z,25.30
2024-04-05T09:16:07.046Z,25.23
2024-04-05T09:17:07.121Z,25.20
2024-04-05T09:18:07.080Z,25.18
2024-04-05T09:19:07.083Z,25.15
2024-04-05T09:20:07.080Z,25.11
2024-04-05T09:21:07.142Z,25.10
2024-04-05T09:22:07.562Z,25.04
2024-04-05T09:23:07.194Z,25.00
2024-04-05T09:24:07.270Z,25.03
2024-04-05T09:25:07.269Z,24.98
2024-04-05T09:26:07.549Z,24.88
2024-04-05T09:27:07.394Z,24.87
2024-04-05T09:28:07.619Z,24.85
2024-04-05T09:29:07.459Z,24.82
2024-04-05T09:30:08.035Z,24.78
2024-04-05T09:31:07.505Z,24.67
2024-04-05T09:32:07.588Z,24.64
2024-04-05T09:33:08.109Z,24.77
2024-04-05T09:34:07.658Z,24.82
2024-04-05T09:35:07.695Z,24.76
2024-04-05T09:36:07.760Z,24.75
2024-04-05T09:37:07.815Z,24.75
2024-04-05T09:38:07.829Z,24.80
2024-04-05T09:39:08.035Z,24.90
2024-04-05T09:40:07.890Z,24.95
2024-04-05T09:41:07.945Z,24.87
2024-04-05T09:42:07.950Z,24.86
2024-04-05T09:43:08.006Z,24.91
2024-04-05T09:44:14.091Z,24.87
2024-04-05T09:45:09.053Z,24.86
2024-04-05T09:46:08.086Z,24.87
2024-04-05T09:47:08.034Z,24.82
2024-04-05T09:48:08.038Z,24.79
2024-04-05T09:49:08.044Z,24.77
2024-04-05T09:50:08.060Z,24.78
2024-04-05T09:51:08.629Z,24.79
2024-04-05T09:52:08.066Z,24.76
2024-04-05T09:53:08.062Z,24.78
2024-04-05T09:54:08.084Z,24.70
2024-04-05T09:55:08.037Z,24.66
2024-04-05T09:56:08.060Z,24.62
2024-04-05T09:57:08.049Z,24.65
2024-04-05T09:58:08.078Z,24.60
2024-04-05T09:59:08.064Z,24.61
2024-04-05T10:00:08.086Z,24.61
2024-04-05T10:01:08.606Z,24.57
2024-04-05T10:02:08.086Z,24.57
2024-04-05T10:03:09.058Z,24.55
2024-04-05T10:04:08.109Z,24.58
2024-04-05T10:05:08.156Z,24.57
2024-04-05T10:06:08.121Z,24.54
2024-04-05T10:07:08.076Z,24.57
2024-04-05T10:08:08.201Z,24.52
2024-04-05T10:09:08.155Z,24.46
2024-04-05T10:10:08.164Z,24.52
2024-04-05T10:11:08.217Z,24.71
2024-04-05T10:12:08.264Z,24.57
2024-04-05T10:13:08.212Z,24.53
2024-04-05T10:14:09.143Z,24.55
2024-04-05T10:15:08.283Z,24.49
2024-04-05T10:16:08.310Z,24.47
2024-04-05T10:17:08.612Z,24.43
2024-04-05T10:18:08.298Z,24.44
2024-04-05T10:19:08.327Z,24.43
2024-04-05T10:20:08.367Z,24.41
2024-04-05T10:21:08.372Z,24.33
2024-04-05T10:22:08.578Z,24.36
2024-04-05T10:23:08.358Z,24.36
2024-04-05T10:24:09.074Z,24.24
2024-04-05T10:25:09.061Z,24.35
2024-04-05T10:26:08.606Z,25.17
2024-04-05T10:27:08.368Z,25.12
2024-04-05T10:28:08.380Z,25.49
2024-04-05T10:29:08.380Z,25.56
2024-04-05T10:30:08.431Z,25.91
2024-04-05T10:31:08.435Z,26.29
2024-04-05T10:32:08.613Z,26.38
2024-04-05T10:33:08.452Z,26.77
2024-04-05T10:34:08.737Z,27.03
2024-04-05T10:35:10.186Z,27.12
2024-04-05T10:36:08.576Z,27.30
2024-04-05T10:37:08.539Z,26.50
2024-04-05T10:38:19.219Z,26.35
2024-04-05T10:39:09.587Z,26.28
2024-04-05T10:40:08.527Z,26.34
2024-04-05T10:41:08.569Z,26.22
2024-04-05T10:42:08.507Z,26.64
2024-04-05T10:43:08.532Z,26.84
2024-04-05T10:44:08.552Z,26.78
2024-04-05T10:45:08.535Z,26.45
2024-04-05T10:46:08.597Z,26.45
2024-04-05T10:47:08.596Z,26.59
2024-04-05T10:48:08.566Z,26.70
2024-04-05T10:49:08.568Z,26.82
2024-04-05T10:50:08.590Z,26.95
2024-04-05T10:51:08.535Z,26.93
2024-04-05T10:52:08.536Z,26.89
2024-04-05T10:53:08.524Z,26.90
2024-04-05T10:54:08.547Z,27.02
2024-04-05T10:55:08.555Z,27.14
2024-04-05T10:56:08.770Z,27.17
2024-04-05T10:57:08.576Z,27.18
2024-04-05T10:58:08.507Z,27.08
2024-04-05T10:59:08.597Z,27.24
2024-04-05T11:00:08.545Z,27.28
2024-04-05T11:01:08.610Z,27.12
2024-04-05T11:02:08.552Z,27.36
2024-04-05T11:03:08.559Z,27.23
2024-04-05T11:04:08.540Z,27.12
2024-04-05T11:05:08.589Z,27.15
2024-04-05T11:06:08.557Z,27.62
2024-04-05T11:07:08.585Z,27.35
2024-04-05T11:08:08.636Z,27.28
2024-04-05T11:09:08.598Z,27.21
2024-04-05T11:10:19.589Z,27.49
2024-04-05T11:11:09.599Z,27.31
2024-04-05T11:12:08.577Z,27.20
2024-04-05T11:13:08.569Z,27.80
2024-04-05T11:14:08.595Z,27.61
2024-04-05T11:15:08.590Z,27.42
2024-04-05T11:16:08.597Z,27.51
2024-04-05T11:17:08.677Z,27.60
2024-04-05T11:18:08.610Z,27.62
2024-04-05T11:19:08.637Z,27.33
2024-04-05T11:20:08.625Z,27.24
2024-04-05T11:21:08.630Z,26.93
2024-04-05T11:22:08.598Z,26.82
2024-04-05T11:23:08.595Z,26.87
2024-04-05T11:24:09.121Z,26.84
2024-04-05T11:25:08.662Z,26.78
2024-04-05T11:26:08.579Z,26.78
2024-04-05T11:27:08.636Z,26.61
2024-04-05T11:28:08.627Z,26.65
2024-04-05T11:29:08.638Z,26.68
2024-04-05T11:30:08.596Z,26.61
2024-04-05T11:31:08.605Z,26.52
2024-04-05T11:32:08.602Z,26.48
2024-04-05T11:33:08.615Z,26.28
2024-04-05T11:34:08.622Z,26.30
2024-04-05T11:35:08.636Z,26.31
2024-04-05T11:36:08.639Z,26.18
2024-04-05T11:37:08.628Z,26.16
2024-04-05T11:38:08.650Z,25.96
2024-04-05T11:39:08.609Z,26.08
2024-04-05T11:40:09.133Z,25.91
2024-04-05T11:41:08.703Z,25.90
2024-04-05T11:42:08.684Z,25.58
2024-04-05T11:43:08.715Z,25.75
2024-04-05T11:44:08.710Z,25.56
2024-04-05T11:45:08.735Z,25.64
2024-04-05T11:46:08.701Z,25.54
2024-04-05T11:47:08.691Z,25.40
2024-04-05T11:48:08.715Z,25.37
2024-04-05T11:49:08.763Z,25.45
2024-04-05T11:50:08.732Z,25.16
2024-04-05T11:51:08.693Z,25.31
2024-04-05T11:52:08.725Z,25.09
2024-04-05T11:53:08.742Z,25.11
2024-04-05T11:54:08.736Z,25.07
2024-04-05T11:55:08.830Z,25.09
2024-04-05T11:56:08.778Z,24.86
2024-04-05T11:57:08.754Z,24.96
2024-04-05T11:58:08.750Z,24.86
2024-04-05T11:59:08.750Z,24.90
2024-04-05T12:00:08.752Z,24.82
2024-04-05T12:01:08.828Z,24.77
2024-04-05T12:02:08.879Z,24.74
2024-04-05T12:03:08.848Z,24.82
2024-04-05T12:04:08.875Z,24.81
2024-04-05T12:05:08.843Z,24.90
2024-04-05T12:06:08.886Z,24.75
2024-04-05T12:07:08.845Z,24.84
2024-04-05T12:08:11.453Z,24.75
2024-04-05T12:09:08.909Z,24.73
2024-04-05T12:10:08.938Z,24.75
2024-04-05T12:11:08.949Z,24.79
2024-04-05T12:12:08.898Z,24.77
2024-04-05T12:13:08.887Z,24.81
2024-04-05T12:14:13.206Z,24.71
2024-04-05T12:15:09.899Z,24.71
2024-04-05T12:16:08.888Z,24.77
2024-04-05T12:17:08.980Z,24.77
2024-04-05T12:18:08.904Z,24.72
2024-04-05T12:19:08.907Z,24.69
2024-04-05T12:20:12.236Z,24.78
2024-04-05T12:21:08.918Z,24.89
2024-04-05T12:22:08.873Z,24.86
2024-04-05T12:23:08.948Z,24.77
2024-04-05T12:24:08.935Z,24.82
2024-04-05T12:25:08.947Z,24.71
2024-04-05T12:26:10.412Z,24.87
2024-04-05T12:27:16.611Z,24.84
2024-04-05T12:28:09.937Z,24.78
2024-04-05T12:29:08.910Z,24.71
2024-04-05T12:30:08.922Z,24.75
2024-04-05T12:31:08.928Z,24.80
2024-04-05T12:32:10.556Z,24.82
2024-04-05T12:33:08.897Z,24.84
2024-04-05T12:34:08.944Z,24.68
2024-04-05T12:35:08.914Z,24.73
2024-04-05T12:36:08.894Z,24.75
2024-04-05T12:37:08.935Z,24.67
2024-04-05T12:38:21.335Z,24.62
2024-04-05T12:39:10.675Z,24.69
2024-04-05T12:40:08.980Z,24.67
2024-04-05T12:41:08.914Z,24.73
2024-04-05T12:42:08.915Z,24.67
2024-04-05T12:43:08.972Z,24.69
2024-04-05T12:44:08.980Z,24.66
2024-04-05T12:45:09.686Z,24.69
2024-04-05T12:46:08.932Z,24.69
2024-04-05T12:47:08.947Z,24.66
2024-04-05T12:48:08.941Z,24.62
2024-04-05T12:49:08.962Z,24.64
2024-04-05T12:50:08.979Z,24.65
2024-04-05T12:51:08.942Z,24.67
2024-04-05T12:52:08.940Z,24.74
2024-04-05T12:53:08.928Z,24.71